createdAt,value
2022-09-28T00:00:14.944Z,972.23
2022-09-28T00:01:16.677Z,972.16
2022-09-28T00:02:18.590Z,972.15
2022-09-28T00:03:20.186Z,972.08
2022-09-28T00:04:21.874Z,972.07
2022-09-28T00:05:23.654Z,972.14
2022-09-28T00:06:25.364Z,972.1
2022-09-28T00:07:27.081Z,972.09
2022-09-28T00:08:28.814Z,972.12
2022-09-28T00:09:30.555Z,972.01
2022-09-28T00:10:32.288Z,972.08
2022-09-28T00:11:34.026Z,972.05
2022-09-28T00:12:35.818Z,972
2022-09-28T00:13:37.482Z,972.02
2022-09-28T00:14:39.228Z,971.98
2022-09-28T00:15:40.950Z,972
2022-09-28T00:16:42.739Z,971.98
2022-09-28T00:17:44.431Z,971.98
2022-09-28T00:18:46.185Z,971.99
2022-09-28T00:19:47.930Z,971.99
2022-09-28T00:20:49.624Z,972.01
2022-09-28T00:21:51.360Z,971.98
2022-09-28T00:22:53.095Z,972
2022-09-28T00:23:54.828Z,971.96
2022-09-28T00:24:56.578Z,971.94
2022-09-28T00:25:58.285Z,971.85
2022-09-28T00:27:00.062Z,971.87
2022-09-28T00:28:01.762Z,971.89
2022-09-28T00:29:03.536Z,971.85
2022-09-28T00:30:05.234Z,971.87
2022-09-28T00:31:07.002Z,971.82
2022-09-28T00:32:08.696Z,971.79
2022-09-28T00:33:10.432Z,971.79
2022-09-28T00:34:12.151Z,971.82
2022-09-28T00:35:13.908Z,971.78
2022-09-28T00:36:15.634Z,971.76
2022-09-28T00:37:17.363Z,971.72
2022-09-28T00:38:19.098Z,971.67
2022-09-28T00:39:20.830Z,971.61
2022-09-28T00:40:22.603Z,971.61
2022-09-28T00:41:24.304Z,971.54
2022-09-28T00:42:26.042Z,971.52
2022-09-28T00:43:27.773Z,971.5
2022-09-28T00:44:29.506Z,971.48
2022-09-28T00:45:31.298Z,971.44
2022-09-28T00:46:32.979Z,971.46
2022-09-28T00:47:34.713Z,971.46
2022-09-28T00:48:36.458Z,971.45
2022-09-28T00:49:38.187Z,971.39
2022-09-28T00:50:39.912Z,971.42
2022-09-28T00:51:41.682Z,971.37
2022-09-28T00:52:43.392Z,971.31
2022-09-28T00:53:45.106Z,971.35
2022-09-28T00:54:46.845Z,971.3
2022-09-28T00:55:48.593Z,971.25
2022-09-28T00:56:50.324Z,971.27
2022-09-28T00:57:52.052Z,971.26
2022-09-28T00:58:53.802Z,971.25
2022-09-28T00:59:55.524Z,971.2
2022-09-28T01:00:57.339Z,971.21
2022-09-28T01:01:59.048Z,971.18
2022-09-28T01:03:00.720Z,971.14
2022-09-28T01:04:02.472Z,971.16
2022-09-28T01:05:04.194Z,971.17
2022-09-28T01:06:05.985Z,971.11
2022-09-28T01:07:07.663Z,971.05
2022-09-28T01:08:09.402Z,971.09
2022-09-28T01:09:11.136Z,971.09
2022-09-28T01:10:12.916Z,971.04
2022-09-28T01:11:14.636Z,971.08
2022-09-28T01:12:16.384Z,971.12
2022-09-28T01:13:18.066Z,971.07
2022-09-28T01:14:19.806Z,971.02
2022-09-28T01:15:21.550Z,971
2022-09-28T01:16:23.413Z,970.97
2022-09-28T01:17:25.026Z,970.96
2022-09-28T01:18:26.779Z,970.89
2022-09-28T01:19:28.552Z,970.91
2022-09-28T01:20:30.207Z,970.9
2022-09-28T01:21:31.978Z,970.87
2022-09-28T01:22:33.693Z,970.91
2022-09-28T01:23:35.407Z,970.85
2022-09-28T01:24:37.152Z,970.91
2022-09-28T01:25:38.888Z,970.92
2022-09-28T01:26:40.623Z,970.91
2022-09-28T01:27:42.367Z,970.93
2022-09-28T01:28:44.113Z,970.97
2022-09-28T01:29:45.815Z,971.03
2022-09-28T01:30:47.551Z,970.95
2022-09-28T01:31:49.371Z,970.97
2022-09-28T01:32:51.022Z,970.95
2022-09-28T01:33:52.753Z,970.94
2022-09-28T01:34:54.532Z,970.93
2022-09-28T01:35:56.221Z,970.92
2022-09-28T01:36:57.964Z,970.86
2022-09-28T01:37:59.731Z,970.84
2022-09-28T01:39:01.444Z,970.87
2022-09-28T01:40:03.199Z,970.85
2022-09-28T01:41:04.940Z,970.85
2022-09-28T01:42:06.682Z,970.8
2022-09-28T01:43:08.372Z,970.84
2022-09-28T01:44:10.107Z,970.84
2022-09-28T01:45:11.882Z,970.86
2022-09-28T01:46:13.645Z,970.8
2022-09-28T01:47:15.313Z,970.86
2022-09-28T01:48:17.032Z,970.89
2022-09-28T01:49:18.906Z,970.82
2022-09-28T01:50:20.503Z,970.87
2022-09-28T01:51:22.263Z,970.85
2022-09-28T01:52:23.982Z,970.85
2022-09-28T01:53:25.715Z,970.82
2022-09-28T01:54:27.652Z,970.85
2022-09-28T01:55:29.177Z,970.83
2022-09-28T01:56:30.909Z,970.82
2022-09-28T01:57:32.651Z,970.81
2022-09-28T01:58:34.379Z,970.81
2022-09-28T01:59:36.120Z,970.81
2022-09-28T02:00:37.894Z,970.81
2022-09-28T02:01:39.674Z,970.75
2022-09-28T02:02:41.311Z,970.74
2022-09-28T02:03:43.082Z,970.76
2022-09-28T02:04:44.815Z,970.75
2022-09-28T02:05:46.539Z,970.72
2022-09-28T02:06:48.301Z,970.73
2022-09-28T02:07:50.006Z,970.73
2022-09-28T02:08:51.725Z,970.71
2022-09-28T02:09:53.495Z,970.7
2022-09-28T02:10:55.189Z,970.66
2022-09-28T02:11:56.917Z,970.63
2022-09-28T02:12:58.693Z,970.66
2022-09-28T02:14:00.458Z,970.62
2022-09-28T02:15:02.130Z,970.62
2022-09-28T02:16:03.962Z,970.65
2022-09-28T02:17:05.597Z,970.62
2022-09-28T02:18:07.339Z,970.64
2022-09-28T02:19:09.234Z,970.62
2022-09-28T02:20:10.838Z,970.6
2022-09-28T02:21:12.545Z,970.6
2022-09-28T02:22:14.269Z,970.62
2022-09-28T02:23:16.004Z,970.57
2022-09-28T02:24:21.390Z,970.58
2022-09-28T02:25:19.486Z,970.59
2022-09-28T02:26:21.202Z,970.54
2022-09-28T02:27:22.957Z,970.52
2022-09-28T02:28:24.686Z,970.47
2022-09-28T02:29:26.419Z,970.46
2022-09-28T02:30:28.153Z,970.43
2022-09-28T02:31:29.983Z,970.48
2022-09-28T02:32:31.821Z,970.65
2022-09-28T02:33:33.368Z,970.7
2022-09-28T02:34:35.100Z,970.71
2022-09-28T02:35:36.865Z,970.72
2022-09-28T02:36:38.589Z,970.71
2022-09-28T02:37:40.323Z,970.66
2022-09-28T02:38:42.035Z,970.66
2022-09-28T02:39:43.769Z,970.66
2022-09-28T02:40:45.554Z,970.64
2022-09-28T02:41:47.241Z,970.65
2022-09-28T02:42:49.003Z,970.68
2022-09-28T02:43:50.709Z,970.67
2022-09-28T02:44:52.442Z,970.62
2022-09-28T02:45:54.227Z,970.61
2022-09-28T02:46:56.008Z,970.65
2022-09-28T02:47:57.663Z,970.61
2022-09-28T02:49:17.508Z,970.62
2022-09-28T02:50:01.284Z,970.66
2022-09-28T02:51:02.867Z,970.67
2022-09-28T02:52:04.605Z,970.65
2022-09-28T02:53:06.448Z,970.64
2022-09-28T02:54:08.054Z,970.63
2022-09-28T02:55:09.791Z,970.62
2022-09-28T02:56:11.512Z,970.63
2022-09-28T02:57:13.259Z,970.61
2022-09-28T02:58:15.000Z,970.66
2022-09-28T02:59:16.856Z,970.62
2022-09-28T03:00:18.484Z,970.66
2022-09-28T03:01:20.271Z,970.64
2022-09-28T03:02:21.972Z,970.64
2022-09-28T03:03:23.676Z,970.62
2022-09-28T03:04:25.409Z,970.66
2022-09-28T03:05:27.113Z,970.64
2022-09-28T03:06:28.848Z,970.63
2022-09-28T03:07:30.578Z,970.62
2022-09-28T03:08:32.326Z,970.61
2022-09-28T03:09:35.150Z,970.58
2022-09-28T03:10:35.783Z,970.63
2022-09-28T03:11:37.529Z,970.63
2022-09-28T03:12:39.278Z,970.65
2022-09-28T03:13:40.997Z,970.67
2022-09-28T03:14:42.729Z,970.64
2022-09-28T03:15:48.616Z,970.67
2022-09-28T03:16:46.317Z,970.66
2022-09-28T03:17:47.938Z,970.7
2022-09-28T03:18:49.659Z,970.65
2022-09-28T03:19:51.393Z,970.65
2022-09-28T03:20:53.118Z,970.69
2022-09-28T03:21:54.890Z,970.64
2022-09-28T03:23:20.134Z,970.67
2022-09-28T03:23:58.336Z,970.66
2022-09-28T03:25:00.077Z,970.71
2022-09-28T03:26:01.802Z,970.67
2022-09-28T03:27:03.543Z,970.67
2022-09-28T03:28:05.249Z,970.7
2022-09-28T03:29:07.002Z,970.69
2022-09-28T03:30:08.745Z,970.67
2022-09-28T03:31:10.650Z,970.65
2022-09-28T03:32:12.244Z,970.67
2022-09-28T03:33:13.943Z,970.66
2022-09-28T03:34:15.704Z,970.66
2022-09-28T03:35:17.431Z,970.68
2022-09-28T03:36:19.159Z,970.68
2022-09-28T03:37:20.875Z,970.68
2022-09-28T03:38:22.613Z,970.61
2022-09-28T03:39:24.356Z,970.62
2022-09-28T03:40:26.111Z,970.64
2022-09-28T03:41:27.807Z,970.58
2022-09-28T03:42:29.572Z,970.58
2022-09-28T03:43:31.282Z,970.62
2022-09-28T03:44:33.015Z,970.63
2022-09-28T03:45:34.822Z,970.61
2022-09-28T03:46:36.483Z,970.6
2022-09-28T03:47:38.243Z,970.64
2022-09-28T03:48:40.078Z,970.63
2022-09-28T03:49:41.687Z,970.62
2022-09-28T03:50:43.417Z,970.62
2022-09-28T03:51:45.143Z,970.59
2022-09-28T03:52:46.879Z,970.59
2022-09-28T03:53:48.629Z,970.6
2022-09-28T03:54:50.376Z,970.6
2022-09-28T03:55:52.115Z,970.55
2022-09-28T03:56:53.827Z,970.59
2022-09-28T03:57:55.557Z,970.5
2022-09-28T03:58:57.294Z,970.55
2022-09-28T03:59:59.110Z,970.58
2022-09-28T04:01:00.843Z,970.62
2022-09-28T04:02:02.579Z,970.62
2022-09-28T04:03:04.235Z,970.58
2022-09-28T04:04:05.995Z,970.61
2022-09-28T04:05:07.707Z,970.65
2022-09-28T04:06:09.427Z,970.62
2022-09-28T04:07:11.151Z,970.63
2022-09-28T04:08:12.899Z,970.64
2022-09-28T04:09:14.801Z,970.63
2022-09-28T04:10:16.363Z,970.63
2022-09-28T04:11:18.097Z,970.68
2022-09-28T04:12:19.842Z,970.62
2022-09-28T04:13:21.575Z,970.62
2022-09-28T04:14:23.303Z,970.62
2022-09-28T04:15:25.048Z,970.61
2022-09-28T04:16:26.825Z,970.59
2022-09-28T04:17:28.518Z,970.58
2022-09-28T04:18:30.246Z,970.63
2022-09-28T04:19:31.985Z,970.62
2022-09-28T04:20:33.741Z,970.65
2022-09-28T04:21:35.486Z,970.66
2022-09-28T04:22:37.183Z,970.64
2022-09-28T04:23:38.918Z,970.62
2022-09-28T04:24:40.681Z,970.61
2022-09-28T04:25:42.387Z,970.61
2022-09-28T04:26:44.133Z,970.62
2022-09-28T04:27:45.861Z,970.6
2022-09-28T04:28:47.589Z,970.6
2022-09-28T04:29:49.330Z,970.61
2022-09-28T04:30:51.064Z,970.6
2022-09-28T04:31:52.916Z,970.63
2022-09-28T04:32:54.537Z,970.68
2022-09-28T04:33:56.259Z,970.66
2022-09-28T04:34:57.996Z,970.7
2022-09-28T04:35:59.728Z,970.67
2022-09-28T04:37:01.467Z,970.65
2022-09-28T04:38:03.204Z,970.71
2022-09-28T04:39:04.934Z,970.7
2022-09-28T04:40:06.677Z,970.67
2022-09-28T04:41:08.419Z,970.71
2022-09-28T04:42:10.167Z,970.73
2022-09-28T04:43:11.873Z,970.79
2022-09-28T04:44:13.635Z,970.76
2022-09-28T04:45:15.350Z,970.72
2022-09-28T04:46:17.227Z,970.74
2022-09-28T04:47:18.817Z,970.79
2022-09-28T04:48:20.555Z,970.82
2022-09-28T04:49:22.298Z,970.78
2022-09-28T04:50:24.021Z,970.79
2022-09-28T04:51:25.743Z,970.76
2022-09-28T04:52:27.500Z,970.78
2022-09-28T04:53:29.213Z,970.8
2022-09-28T04:54:30.952Z,970.82
2022-09-28T04:55:32.684Z,970.78
2022-09-28T04:56:34.422Z,970.77
2022-09-28T04:57:36.229Z,970.78
2022-09-28T04:58:37.929Z,970.79
2022-09-28T04:59:39.646Z,970.85
2022-09-28T05:00:41.373Z,970.82
2022-09-28T05:01:43.139Z,970.89
2022-09-28T05:02:44.944Z,970.89
2022-09-28T05:03:46.595Z,970.91
2022-09-28T05:04:48.304Z,970.95
2022-09-28T05:05:50.038Z,970.97
2022-09-28T05:06:51.769Z,970.97
2022-09-28T05:07:54.606Z,970.99
2022-09-28T05:08:55.250Z,971.04
2022-09-28T05:09:56.990Z,971.02
2022-09-28T05:10:58.733Z,971.05
2022-09-28T05:12:00.435Z,971.04
2022-09-28T05:13:02.166Z,971.06
2022-09-28T05:14:03.915Z,971.04
2022-09-28T05:15:05.672Z,971.07
2022-09-28T05:16:07.431Z,971.02
2022-09-28T05:17:09.134Z,971.08
2022-09-28T05:18:10.876Z,971.03
2022-09-28T05:19:12.643Z,971.03
2022-09-28T05:20:14.378Z,971.03
2022-09-28T05:21:16.079Z,971.02
2022-09-28T05:22:17.840Z,971.06
2022-09-28T05:23:19.541Z,971.09
2022-09-28T05:24:21.279Z,971.05
2022-09-28T05:25:23.018Z,971.08
2022-09-28T05:26:24.788Z,971.11
2022-09-28T05:27:41.876Z,971.07
2022-09-28T05:28:43.621Z,971.08
2022-09-28T05:29:45.347Z,971.1
2022-09-28T05:30:47.142Z,971.11
2022-09-28T05:31:49.018Z,971.13
2022-09-28T05:32:50.547Z,971.17
2022-09-28T05:33:52.290Z,971.12
2022-09-28T05:34:54.114Z,971.15
2022-09-28T05:36:00.802Z,971.18
2022-09-28T05:36:57.494Z,971.18
2022-09-28T05:37:59.255Z,971.19
2022-09-28T05:39:00.959Z,971.19
2022-09-28T05:40:02.692Z,971.16
2022-09-28T05:41:06.381Z,971.14
2022-09-28T05:42:06.197Z,971.15
2022-09-28T05:43:07.890Z,971.19
2022-09-28T05:44:09.621Z,971.18
2022-09-28T05:45:11.363Z,971.16
2022-09-28T05:46:13.234Z,971.26
2022-09-28T05:47:14.862Z,971.26
2022-09-28T05:48:16.627Z,971.22
2022-09-28T05:49:18.365Z,971.28
2022-09-28T05:50:20.071Z,971.22
2022-09-28T05:51:21.845Z,971.26
2022-09-28T05:52:23.580Z,971.2
2022-09-28T05:53:25.258Z,971.25
2022-09-28T05:54:27.040Z,971.27
2022-09-28T05:55:28.804Z,971.31
2022-09-28T05:56:30.503Z,971.26
2022-09-28T05:57:32.213Z,971.25
2022-09-28T05:58:33.974Z,971.34
2022-09-28T05:59:35.682Z,971.28
2022-09-28T06:00:37.428Z,971.24
2022-09-28T06:01:39.253Z,971.29
2022-09-28T06:02:40.955Z,971.27
2022-09-28T06:03:42.642Z,971.24
2022-09-28T06:04:44.371Z,971.29
2022-09-28T06:05:46.073Z,971.29
2022-09-28T06:06:47.855Z,971.27
2022-09-28T06:07:49.586Z,971.3
2022-09-28T06:08:51.394Z,971.27
2022-09-28T06:09:53.041Z,971.25
2022-09-28T06:10:54.737Z,971.24
2022-09-28T06:11:56.508Z,971.3
2022-09-28T06:12:58.167Z,971.35
2022-09-28T06:13:59.897Z,971.35
2022-09-28T06:15:01.647Z,971.34
2022-09-28T06:16:03.367Z,971.38
2022-09-28T06:17:05.216Z,971.4
2022-09-28T06:18:06.877Z,971.4
2022-09-28T06:19:08.571Z,971.42
2022-09-28T06:20:10.310Z,971.42
2022-09-28T06:21:12.049Z,971.43
2022-09-28T06:22:13.776Z,971.45
2022-09-28T06:23:15.529Z,971.42
2022-09-28T06:24:17.420Z,971.45
2022-09-28T06:25:18.971Z,971.47
2022-09-28T06:26:20.704Z,971.48
2022-09-28T06:27:22.447Z,971.51
2022-09-28T06:28:24.166Z,971.53
2022-09-28T06:29:25.911Z,971.53
2022-09-28T06:30:27.746Z,971.6
2022-09-28T06:31:29.378Z,971.57
2022-09-28T06:32:31.120Z,971.59
2022-09-28T06:33:32.846Z,971.57
2022-09-28T06:34:34.585Z,971.59
2022-09-28T06:35:36.432Z,971.57
2022-09-28T06:36:38.032Z,971.63
2022-09-28T06:37:39.780Z,971.63
2022-09-28T06:38:41.520Z,971.64
2022-09-28T06:39:43.253Z,971.67
2022-09-28T06:40:45.087Z,971.69
2022-09-28T06:41:46.720Z,971.68
2022-09-28T06:42:48.455Z,971.7
2022-09-28T06:43:50.183Z,971.69
2022-09-28T06:44:51.925Z,971.66
2022-09-28T06:45:53.764Z,971.69
2022-09-28T06:46:55.384Z,971.65
2022-09-28T06:47:57.115Z,971.64
2022-09-28T06:48:58.856Z,971.65
2022-09-28T06:50:00.582Z,971.62
2022-09-28T06:51:02.312Z,971.66
2022-09-28T06:52:04.135Z,971.68
2022-09-28T06:53:05.799Z,971.66
2022-09-28T06:54:07.541Z,971.66
2022-09-28T06:55:09.279Z,971.71
2022-09-28T06:56:11.002Z,971.73
2022-09-28T06:57:12.747Z,971.7
2022-09-28T06:58:14.511Z,971.74
2022-09-28T06:59:16.195Z,971.71
2022-09-28T07:00:17.950Z,971.71
2022-09-28T07:01:19.770Z,971.72
2022-09-28T07:02:21.490Z,971.77
2022-09-28T07:03:23.224Z,971.8
2022-09-28T07:04:24.891Z,971.83
2022-09-28T07:05:26.620Z,971.82
2022-09-28T07:06:28.340Z,971.86
2022-09-28T07:07:30.091Z,971.9
2022-09-28T07:08:31.857Z,971.93
2022-09-28T07:09:35.875Z,971.91
2022-09-28T07:10:35.307Z,971.96
2022-09-28T07:11:37.026Z,971.97
2022-09-28T07:12:38.792Z,971.97
2022-09-28T07:13:48.964Z,971.99
2022-09-28T07:14:47.912Z,972
2022-09-28T07:15:43.993Z,972.01
2022-09-28T07:17:09.573Z,972.05
2022-09-28T07:17:59.280Z,972.04
2022-09-28T07:18:49.182Z,972.04
2022-09-28T07:19:50.898Z,972.01
2022-09-28T07:20:54.704Z,972.08
2022-09-28T07:22:02.319Z,972.07
2022-09-28T07:22:56.724Z,972.1
2022-09-28T07:23:57.836Z,972.05
2022-09-28T07:24:59.560Z,972.08
2022-09-28T07:26:01.381Z,972.15
2022-09-28T07:27:03.033Z,972.17
2022-09-28T07:28:04.758Z,972.21
2022-09-28T07:29:06.550Z,972.21
2022-09-28T07:30:08.293Z,972.18
2022-09-28T07:31:10.166Z,972.14
2022-09-28T07:32:11.717Z,972.18
2022-09-28T07:33:13.440Z,972.19
2022-09-28T07:34:15.245Z,972.23
2022-09-28T07:35:16.923Z,972.22
2022-09-28T07:36:18.648Z,972.22
2022-09-28T07:37:20.380Z,972.29
2022-09-28T07:38:22.114Z,972.32
2022-09-28T07:39:23.852Z,972.33
2022-09-28T07:40:25.706Z,972.34
2022-09-28T07:41:27.336Z,972.37
2022-09-28T07:42:29.048Z,972.39
2022-09-28T07:43:30.791Z,972.36
2022-09-28T07:44:32.519Z,972.44
2022-09-28T07:45:34.369Z,972.47
2022-09-28T07:46:36.011Z,972.44
2022-09-28T07:47:37.738Z,972.48
2022-09-28T07:48:39.463Z,972.49
2022-09-28T07:49:41.190Z,972.48
2022-09-28T07:50:42.924Z,972.48
2022-09-28T07:51:44.777Z,972.5
2022-09-28T07:52:46.421Z,972.51
2022-09-28T07:53:48.135Z,972.51
2022-09-28T07:54:49.865Z,972.52
2022-09-28T07:55:51.604Z,972.55
2022-09-28T07:56:53.538Z,972.58
2022-09-28T07:57:55.094Z,972.62
2022-09-28T07:58:56.809Z,972.62
2022-09-28T07:59:58.541Z,972.65
2022-09-28T08:01:00.351Z,972.66
2022-09-28T08:02:02.104Z,972.66
2022-09-28T08:03:03.770Z,972.6
2022-09-28T08:04:05.495Z,972.67
2022-09-28T08:05:07.221Z,972.72
2022-09-28T08:06:08.985Z,972.73
2022-09-28T08:07:10.717Z,972.68
2022-09-28T08:08:12.412Z,972.7
2022-09-28T08:09:14.256Z,972.77
2022-09-28T08:10:15.911Z,972.68
2022-09-28T08:11:17.627Z,972.73
2022-09-28T08:12:19.347Z,972.77
2022-09-28T08:13:23.447Z,972.71
2022-09-28T08:14:22.824Z,972.76
2022-09-28T08:15:24.584Z,972.8
2022-09-28T08:16:26.465Z,972.77
2022-09-28T08:17:28.021Z,972.77
2022-09-28T08:18:29.757Z,972.82
2022-09-28T08:19:31.490Z,972.8
2022-09-28T08:20:33.228Z,972.81
2022-09-28T08:21:34.981Z,972.86
2022-09-28T08:22:36.689Z,972.9
2022-09-28T08:23:38.439Z,972.92
2022-09-28T08:24:40.188Z,972.94
2022-09-28T08:25:41.897Z,972.96
2022-09-28T08:26:43.625Z,972.95
2022-09-28T08:27:45.362Z,972.98
2022-09-28T08:28:47.096Z,973.02
2022-09-28T08:29:48.829Z,972.99
2022-09-28T08:30:50.652Z,973.02
2022-09-28T08:31:52.292Z,973.06
2022-09-28T08:32:54.094Z,973.09
2022-09-28T08:33:55.771Z,973.1
2022-09-28T08:34:57.498Z,973.12
2022-09-28T08:35:59.227Z,973.12
2022-09-28T08:37:00.971Z,973.11
2022-09-28T08:38:02.691Z,973.14
2022-09-28T08:39:04.512Z,973.08
2022-09-28T08:40:06.194Z,973.1
2022-09-28T08:41:07.911Z,973.1
2022-09-28T08:42:09.640Z,973.11
2022-09-28T08:43:11.382Z,973.1
2022-09-28T08:44:13.183Z,973.11
2022-09-28T08:45:14.832Z,973.11
2022-09-28T08:46:16.721Z,973.15
2022-09-28T08:47:18.316Z,973.07
2022-09-28T08:48:20.066Z,973.16
2022-09-28T08:49:25.333Z,973.16
2022-09-28T08:50:23.504Z,973.11
2022-09-28T08:51:26.130Z,973.18
2022-09-28T08:52:26.974Z,973.16
2022-09-28T08:53:28.709Z,973.14
2022-09-28T08:54:30.476Z,973.14
2022-09-28T08:55:32.180Z,973.11
2022-09-28T08:56:33.907Z,973.17
2022-09-28T08:57:35.647Z,973.15
2022-09-28T08:58:37.378Z,973.15
2022-09-28T08:59:39.123Z,973.19
2022-09-28T09:00:40.900Z,973.14
2022-09-28T09:01:42.682Z,973.14
2022-09-28T09:02:44.461Z,973.2
2022-09-28T09:03:46.115Z,973.15
2022-09-28T09:04:47.853Z,973.13
2022-09-28T09:05:49.566Z,973.18
2022-09-28T09:06:51.287Z,973.15
2022-09-28T09:07:53.016Z,973.18
2022-09-28T09:08:54.792Z,973.2
2022-09-28T09:09:56.527Z,973.17
2022-09-28T09:10:58.219Z,973.12
2022-09-28T09:11:59.950Z,973.21
2022-09-28T09:13:01.685Z,973.2
2022-09-28T09:14:03.465Z,973.22
2022-09-28T09:15:05.167Z,973.22
2022-09-28T09:16:06.892Z,973.2
2022-09-28T09:17:08.627Z,973.23
2022-09-28T09:18:10.410Z,973.25
2022-09-28T09:19:12.125Z,973.23
2022-09-28T09:20:13.835Z,973.25
2022-09-28T09:21:15.573Z,973.25
2022-09-28T09:22:17.326Z,973.27
2022-09-28T09:23:19.039Z,973.23
2022-09-28T09:24:20.767Z,973.23
2022-09-28T09:25:22.509Z,973.23
2022-09-28T09:26:25.919Z,973.23
2022-09-28T09:27:26.000Z,973.23
2022-09-28T09:28:27.713Z,973.27
2022-09-28T09:29:29.518Z,973.26
2022-09-28T09:30:31.850Z,973.26
2022-09-28T09:31:32.933Z,973.28
2022-09-28T09:32:34.687Z,973.27
2022-09-28T09:33:36.412Z,973.3
2022-09-28T09:34:38.116Z,973.27
2022-09-28T09:35:39.850Z,973.24
2022-09-28T09:36:41.617Z,973.3
2022-09-28T09:37:43.365Z,973.28
2022-09-28T09:38:45.082Z,973.33
2022-09-28T09:39:46.791Z,973.35
2022-09-28T09:40:48.623Z,973.32
2022-09-28T09:41:50.260Z,973.3
2022-09-28T09:42:51.980Z,973.31
2022-09-28T09:43:53.766Z,973.29
2022-09-28T09:44:55.492Z,973.25
2022-09-28T09:45:57.236Z,973.27
2022-09-28T09:46:58.950Z,973.29
2022-09-28T09:48:00.663Z,973.27
2022-09-28T09:49:02.409Z,973.32
2022-09-28T09:50:08.304Z,973.23
2022-09-28T09:51:05.901Z,973.3
2022-09-28T09:52:07.583Z,973.26
2022-09-28T09:53:09.357Z,973.27
2022-09-28T09:54:11.117Z,973.27
2022-09-28T09:55:12.836Z,973.28
2022-09-28T09:56:14.597Z,973.28
2022-09-28T09:57:16.258Z,973.27
2022-09-28T09:58:18.016Z,973.32
2022-09-28T09:59:19.894Z,973.29
2022-09-28T10:00:21.471Z,973.33
2022-09-28T10:01:23.310Z,973.28
2022-09-28T10:02:25.034Z,973.31
2022-09-28T10:03:26.658Z,973.32
2022-09-28T10:04:28.401Z,973.35
2022-09-28T10:05:30.146Z,973.39
2022-09-28T10:06:31.845Z,973.42
2022-09-28T10:07:33.598Z,973.41
2022-09-28T10:08:35.314Z,973.4
2022-09-28T10:09:37.043Z,973.31
2022-09-28T10:10:38.812Z,973.38
2022-09-28T10:11:40.546Z,973.4
2022-09-28T10:12:42.250Z,973.43
2022-09-28T10:13:43.991Z,973.43
2022-09-28T10:14:45.769Z,973.41
2022-09-28T10:15:47.443Z,973.43
2022-09-28T10:16:49.332Z,973.43
2022-09-28T10:17:50.927Z,973.37
2022-09-28T10:18:52.663Z,973.41
2022-09-28T10:19:54.397Z,973.33
2022-09-28T10:20:56.144Z,973.38
2022-09-28T10:21:57.850Z,973.38
2022-09-28T10:22:59.612Z,973.4
2022-09-28T10:24:01.321Z,973.4
2022-09-28T10:25:03.052Z,973.36
2022-09-28T10:26:04.830Z,973.41
2022-09-28T10:27:06.527Z,973.39
2022-09-28T10:28:08.287Z,973.4
2022-09-28T10:29:09.983Z,973.42
2022-09-28T10:30:11.726Z,973.45
2022-09-28T10:31:13.484Z,973.46
2022-09-28T10:32:15.225Z,973.45
2022-09-28T10:33:16.938Z,973.47
2022-09-28T10:34:18.826Z,973.49
2022-09-28T10:35:20.422Z,973.52
2022-09-28T10:36:22.183Z,973.5
2022-09-28T10:37:23.861Z,973.5
2022-09-28T10:38:25.598Z,973.48
2022-09-28T10:39:27.324Z,973.51
2022-09-28T10:40:29.110Z,973.53
2022-09-28T10:41:30.786Z,973.54
2022-09-28T10:42:32.536Z,973.57
2022-09-28T10:43:34.279Z,973.57
2022-09-28T10:44:36.029Z,973.6
2022-09-28T10:45:37.777Z,973.61
2022-09-28T10:46:39.465Z,973.59
2022-09-28T10:47:41.251Z,973.6
2022-09-28T10:48:42.946Z,973.63
2022-09-28T10:49:47.278Z,973.62
2022-09-28T10:50:46.444Z,973.64
2022-09-28T10:51:48.147Z,973.58
2022-09-28T10:52:49.876Z,973.67
2022-09-28T10:53:51.609Z,973.64
2022-09-28T10:54:53.384Z,973.66
2022-09-28T10:55:55.080Z,973.66
2022-09-28T10:56:56.820Z,973.65
2022-09-28T10:57:58.552Z,973.67
2022-09-28T10:59:00.293Z,973.69
2022-09-28T11:00:02.052Z,973.66
2022-09-28T11:01:03.877Z,973.64
2022-09-28T11:02:05.553Z,973.62
2022-09-28T11:03:07.261Z,973.61
2022-09-28T11:04:08.960Z,973.58
2022-09-28T11:05:10.709Z,973.65
2022-09-28T11:06:12.455Z,973.62
2022-09-28T11:07:16.572Z,973.67
2022-09-28T11:08:15.911Z,973.6
2022-09-28T11:09:17.810Z,973.64
2022-09-28T11:10:19.353Z,973.63
2022-09-28T11:11:21.099Z,973.6
2022-09-28T11:12:22.820Z,973.62
2022-09-28T11:13:24.564Z,973.6
2022-09-28T11:14:26.313Z,973.55
2022-09-28T11:15:28.023Z,973.58
2022-09-28T11:16:29.851Z,973.59
2022-09-28T11:17:31.506Z,973.59
2022-09-28T11:18:33.269Z,973.62
2022-09-28T11:19:34.979Z,973.63
2022-09-28T11:20:36.712Z,973.64
2022-09-28T11:21:38.446Z,973.62
2022-09-28T11:22:40.187Z,973.56
2022-09-28T11:23:41.915Z,973.56
2022-09-28T11:24:43.729Z,973.57
2022-09-28T11:25:45.367Z,973.52
2022-09-28T11:26:47.101Z,973.48
2022-09-28T11:27:48.834Z,973.48
2022-09-28T11:28:50.572Z,973.48
2022-09-28T11:29:52.316Z,973.48
2022-09-28T11:30:54.171Z,973.39
2022-09-28T11:31:55.792Z,973.47
2022-09-28T11:32:57.501Z,973.42
2022-09-28T11:33:59.240Z,973.44
2022-09-28T11:35:00.991Z,973.41
2022-09-28T11:36:02.724Z,973.44
2022-09-28T11:37:04.450Z,973.38
2022-09-28T11:38:06.198Z,973.4
2022-09-28T11:39:07.934Z,973.41
2022-09-28T11:40:09.641Z,973.36
2022-09-28T11:41:11.383Z,973.39
2022-09-28T11:42:16.335Z,973.43
2022-09-28T11:43:16.758Z,973.4
2022-09-28T11:44:16.583Z,973.35
2022-09-28T11:45:18.337Z,973.38
2022-09-28T11:46:20.236Z,973.35
2022-09-28T11:47:21.767Z,973.31
2022-09-28T11:48:23.546Z,973.36
2022-09-28T11:49:25.241Z,973.39
2022-09-28T11:50:26.984Z,973.4
2022-09-28T11:51:28.716Z,973.4
2022-09-28T11:52:30.450Z,973.38
2022-09-28T11:53:32.203Z,973.39
2022-09-28T11:54:33.925Z,973.32
2022-09-28T11:55:35.768Z,973.32
2022-09-28T11:56:37.380Z,973.34
2022-09-28T11:57:39.128Z,973.27
2022-09-28T11:58:40.857Z,973.32
2022-09-28T11:59:42.585Z,973.33
2022-09-28T12:00:44.368Z,973.31
2022-09-28T12:01:46.075Z,973.29
2022-09-28T12:02:47.972Z,973.33
2022-09-28T12:03:49.585Z,973.32
2022-09-28T12:04:51.287Z,973.3
2022-09-28T12:05:53.007Z,973.28
2022-09-28T12:06:54.829Z,973.28
2022-09-28T12:07:56.482Z,973.3
2022-09-28T12:08:58.314Z,973.32
2022-09-28T12:09:59.953Z,973.33
2022-09-28T12:11:01.672Z,973.33
2022-09-28T12:12:03.435Z,973.36
2022-09-28T12:13:05.186Z,973.36
2022-09-28T12:14:06.871Z,973.39
2022-09-28T12:15:08.592Z,973.33
2022-09-28T12:16:32.807Z,973.39
2022-09-28T12:17:15.377Z,973.36
2022-09-28T12:18:13.877Z,973.36
2022-09-28T12:19:15.601Z,973.32
2022-09-28T12:20:17.283Z,973.32
2022-09-28T12:21:19.052Z,973.4
2022-09-28T12:22:20.745Z,973.44
2022-09-28T12:23:22.483Z,973.36
2022-09-28T12:24:24.230Z,973.43
2022-09-28T12:25:25.948Z,973.38
2022-09-28T12:26:27.676Z,973.41
2022-09-28T12:27:29.414Z,973.41
2022-09-28T12:28:31.180Z,973.37
2022-09-28T12:29:32.915Z,973.41
2022-09-28T12:30:34.735Z,973.41
2022-09-28T12:31:36.431Z,973.42
2022-09-28T12:32:38.169Z,973.36
2022-09-28T12:33:39.854Z,973.4
2022-09-28T12:34:41.652Z,973.39
2022-09-28T12:35:43.357Z,973.43
2022-09-28T12:36:45.045Z,973.41
2022-09-28T12:37:46.784Z,973.4
2022-09-28T12:39:08.510Z,973.38
2022-09-28T12:39:57.702Z,973.42
2022-09-28T12:40:52.048Z,973.42
2022-09-28T12:41:53.759Z,973.43
2022-09-28T12:42:55.452Z,973.35
2022-09-28T12:43:57.223Z,973.43
2022-09-28T12:44:59.707Z,973.41
2022-09-28T12:46:11.618Z,973.39
2022-09-28T12:47:02.548Z,973.41
2022-09-28T12:48:04.159Z,973.4
2022-09-28T12:50:37.654Z,973.42
2022-09-28T12:51:09.359Z,973.43
2022-09-28T12:52:11.065Z,973.41
2022-09-28T12:53:12.791Z,973.39
2022-09-28T12:54:14.605Z,973.41